sensor_id;sensor_type;location;lat;lon;timestamp;P1;durP1;ratioP1;P2;durP2;ratioP2
50291;SDS011;36190;54.980;73.388;2023-07-20T00:00:17;17.30;;;10.00;;
50291;SDS011;36190;54.980;73.388;2023-07-20T00:02:49;18.45;;;10.65;;
50291;SDS011;36190;54.980;73.388;2023-07-20T00:05:17;18.90;;;11.80;;
50291;SDS011;36190;54.980;73.388;2023-07-20T00:07:46;21.10;;;10.75;;
50291;SDS011;36190;54.980;73.388;2023-07-20T00:10:20;17.13;;;10.55;;
50291;SDS011;36190;54.980;73.388;2023-07-20T00:12:48;19.02;;;11.15;;
50291;SDS011;36190;54.980;73.388;2023-07-20T00:15:15;18.58;;;10.43;;
50291;SDS011;36190;54.980;73.388;2023-07-20T00:17:43;17.35;;;10.77;;
50291;SDS011;36190;54.980;73.388;2023-07-20T00:20:11;17.77;;;10.10;;
50291;SDS011;36190;54.980;73.388;2023-07-20T00:22:38;19.33;;;10.35;;
50291;SDS011;36190;54.980;73.388;2023-07-20T00:25:05;18.42;;;10.30;;
50291;SDS011;36190;54.980;73.388;2023-07-20T00:27:33;17.13;;;9.40;;
50291;SDS011;36190;54.980;73.388;2023-07-20T00:30:02;19.55;;;10.45;;
50291;SDS011;36190;54.980;73.388;2023-07-20T00:32:30;15.65;;;8.82;;
50291;SDS011;36190;54.980;73.388;2023-07-20T00:34:57;17.23;;;8.70;;
50291;SDS011;36190;54.980;73.388;2023-07-20T00:37:25;15.18;;;9.10;;
50291;SDS011;36190;54.980;73.388;2023-07-20T00:39:52;12.85;;;8.63;;
50291;SDS011;36190;54.980;73.388;2023-07-20T00:42:20;15.48;;;8.98;;
50291;SDS011;36190;54.980;73.388;2023-07-20T00:44:47;14.55;;;9.38;;
50291;SDS011;36190;54.980;73.388;2023-07-20T00:47:16;14.77;;;9.10;;
50291;SDS011;36190;54.980;73.388;2023-07-20T00:49:43;15.07;;;8.65;;
50291;SDS011;36190;54.980;73.388;2023-07-20T00:52:11;17.13;;;9.10;;
50291;SDS011;36190;54.980;73.388;2023-07-20T00:54:41;13.65;;;8.77;;
50291;SDS011;36190;54.980;73.388;2023-07-20T00:57:08;13.73;;;8.98;;
50291;SDS011;36190;54.980;73.388;2023-07-20T00:59:36;17.00;;;9.32;;
50291;SDS011;36190;54.980;73.388;2023-07-20T01:02:04;16.55;;;9.60;;
50291;SDS011;36190;54.980;73.388;2023-07-20T01:04:32;16.73;;;9.70;;
50291;SDS011;36190;54.980;73.388;2023-07-20T01:07:02;19.15;;;11.70;;
50291;SDS011;36190;54.980;73.388;2023-07-20T01:09:40;20.88;;;11.70;;
50291;SDS011;36190;54.980;73.388;2023-07-20T01:12:15;17.98;;;9.65;;
50291;SDS011;36190;54.980;73.388;2023-07-20T01:14:48;16.15;;;10.43;;
50291;SDS011;36190;54.980;73.388;2023-07-20T01:17:18;17.92;;;11.05;;
50291;SDS011;36190;54.980;73.388;2023-07-20T01:19:47;15.73;;;10.57;;
50291;SDS011;36190;54.980;73.388;2023-07-20T01:22:18;17.75;;;10.40;;
50291;SDS011;36190;54.980;73.388;2023-07-20T01:25:07;17.77;;;10.93;;
50291;SDS011;36190;54.980;73.388;2023-07-20T01:27:54;20.30;;;11.40;;
50291;SDS011;36190;54.980;73.388;2023-07-20T01:30:52;18.17;;;10.98;;
50291;SDS011;36190;54.980;73.388;2023-07-20T01:33:27;19.10;;;11.20;;
50291;SDS011;36190;54.980;73.388;2023-07-20T01:35:58;17.15;;;10.90;;
50291;SDS011;36190;54.980;73.388;2023-07-20T01:38:27;16.90;;;10.90;;
50291;SDS011;36190;54.980;73.388;2023-07-20T01:40:55;19.20;;;11.57;;
50291;SDS011;36190;54.980;73.388;2023-07-20T01:43:23;19.10;;;11.27;;
50291;SDS011;36190;54.980;73.388;2023-07-20T01:45:51;16.67;;;10.63;;
50291;SDS011;36190;54.980;73.388;2023-07-20T01:48:18;18.08;;;10.82;;
50291;SDS011;36190;54.980;73.388;2023-07-20T01:50:47;15.98;;;11.95;;
50291;SDS011;36190;54.980;73.388;2023-07-20T01:53:14;17.73;;;10.27;;
50291;SDS011;36190;54.980;73.388;2023-07-20T01:55:41;16.27;;;10.05;;
50291;SDS011;36190;54.980;73.388;2023-07-20T01:58:09;18.55;;;11.25;;
50291;SDS011;36190;54.980;73.388;2023-07-20T02:00:36;17.77;;;10.93;;
50291;SDS011;36190;54.980;73.388;2023-07-20T02:03:04;18.85;;;11.15;;
50291;SDS011;36190;54.980;73.388;2023-07-20T02:05:31;15.57;;;10.80;;
50291;SDS011;36190;54.980;73.388;2023-07-20T02:08:00;15.77;;;10.88;;
50291;SDS011;36190;54.980;73.388;2023-07-20T02:10:27;18.58;;;11.30;;
50291;SDS011;36190;54.980;73.388;2023-07-20T02:12:55;16.65;;;10.45;;
50291;SDS011;36190;54.980;73.388;2023-07-20T02:15:22;18.98;;;11.15;;
50291;SDS011;36190;54.980;73.388;2023-07-20T02:17:50;19.80;;;11.32;;
50291;SDS011;36190;54.980;73.388;2023-07-20T02:20:17;19.58;;;11.10;;
50291;SDS011;36190;54.980;73.388;2023-07-20T02:22:44;15.80;;;10.25;;
50291;SDS011;36190;54.980;73.388;2023-07-20T02:25:14;15.30;;;10.43;;
50291;SDS011;36190;54.980;73.388;2023-07-20T02:27:41;17.13;;;11.55;;
50291;SDS011;36190;54.980;73.388;2023-07-20T02:30:09;16.52;;;10.75;;
50291;SDS011;36190;54.980;73.388;2023-07-20T02:32:36;21.25;;;10.52;;
50291;SDS011;36190;54.980;73.388;2023-07-20T02:35:04;20.90;;;10.88;;
50291;SDS011;36190;54.980;73.388;2023-07-20T02:37:32;20.15;;;10.50;;
50291;SDS011;36190;54.980;73.388;2023-07-20T02:39:59;19.20;;;10.50;;
50291;SDS011;36190;54.980;73.388;2023-07-20T02:42:30;15.93;;;9.73;;
50291;SDS011;36190;54.980;73.388;2023-07-20T02:44:57;14.88;;;8.95;;
50291;SDS011;36190;54.980;73.388;2023-07-20T02:47:25;14.93;;;9.43;;
50291;SDS011;36190;54.980;73.388;2023-07-20T02:49:52;13.45;;;9.05;;
50291;SDS011;36190;54.980;73.388;2023-07-20T02:52:19;15.63;;;9.43;;
50291;SDS011;36190;54.980;73.388;2023-07-20T02:54:47;15.80;;;10.00;;
50291;SDS011;36190;54.980;73.388;2023-07-20T02:57:14;14.85;;;9.18;;
50291;SDS011;36190;54.980;73.388;2023-07-20T02:59:43;17.98;;;9.25;;
50291;SDS011;36190;54.980;73.388;2023-07-20T03:02:10;14.45;;;9.30;;
50291;SDS011;36190;54.980;73.388;2023-07-20T03:04:37;14.80;;;8.93;;
50291;SDS011;36190;54.980;73.388;2023-07-20T03:07:05;16.17;;;9.35;;
50291;SDS011;36190;54.980;73.388;2023-07-20T03:09:33;18.95;;;9.90;;
50291;SDS011;36190;54.980;73.388;2023-07-20T03:12:00;18.15;;;10.02;;
50291;SDS011;36190;54.980;73.388;2023-07-20T03:14:30;17.25;;;9.38;;
50291;SDS011;36190;54.980;73.388;2023-07-20T03:16:58;19.73;;;9.25;;
50291;SDS011;36190;54.980;73.388;2023-07-20T03:19:26;15.65;;;9.18;;
50291;SDS011;36190;54.980;73.388;2023-07-20T03:21:53;15.02;;;9.30;;
50291;SDS011;36190;54.980;73.388;2023-07-20T03:24:20;14.50;;;8.27;;
50291;SDS011;36190;54.980;73.388;2023-07-20T03:26:48;14.57;;;8.65;;
50291;SDS011;36190;54.980;73.388;2023-07-20T03:29:16;17.92;;;8.50;;
50291;SDS011;36190;54.980;73.388;2023-07-20T03:31:43;16.35;;;8.38;;
50291;SDS011;36190;54.980;73.388;2023-07-20T03:34:12;13.20;;;8.00;;
50291;SDS011;36190;54.980;73.388;2023-07-20T03:36:39;13.55;;;7.53;;
50291;SDS011;36190;54.980;73.388;2023-07-20T03:39:07;12.25;;;7.22;;
50291;SDS011;36190;54.980;73.388;2023-07-20T03:41:34;16.45;;;7.75;;
50291;SDS011;36190;54.980;73.388;2023-07-20T03:44:02;15.88;;;7.10;;
50291;SDS011;36190;54.980;73.388;2023-07-20T03:46:29;15.85;;;7.32;;
50291;SDS011;36190;54.980;73.388;2023-07-20T03:48:59;11.55;;;6.38;;
50291;SDS011;36190;54.980;73.388;2023-07-20T03:51:28;14.05;;;6.22;;
50291;SDS011;36190;54.980;73.388;2023-07-20T03:53:55;10.98;;;6.25;;
50291;SDS011;36190;54.980;73.388;2023-07-20T03:56:23;9.77;;;5.20;;
50291;SDS011;36190;54.980;73.388;2023-07-20T03:58:50;11.70;;;5.40;;
50291;SDS011;36190;54.980;73.388;2023-07-20T04:01:18;10.40;;;5.15;;
50291;SDS011;36190;54.980;73.388;2023-07-20T04:03:45;9.65;;;5.05;;
50291;SDS011;36190;54.980;73.388;2023-07-20T04:06:12;10.65;;;5.25;;
50291;SDS011;36190;54.980;73.388;2023-07-20T04:08:43;12.93;;;5.55;;
50291;SDS011;36190;54.980;73.388;2023-07-20T04:11:12;11.35;;;4.78;;
50291;SDS011;36190;54.980;73.388;2023-07-20T04:13:39;10.02;;;5.00;;
50291;SDS011;36190;54.980;73.388;2023-07-20T04:16:07;9.93;;;5.25;;
50291;SDS011;36190;54.980;73.388;2023-07-20T04:18:34;13.50;;;5.95;;
50291;SDS011;36190;54.980;73.388;2023-07-20T04:21:02;12.23;;;4.93;;
50291;SDS011;36190;54.980;73.388;2023-07-20T04:23:29;11.38;;;4.72;;
50291;SDS011;36190;54.980;73.388;2023-07-20T04:25:58;10.43;;;4.65;;
50291;SDS011;36190;54.980;73.388;2023-07-20T04:28:25;9.23;;;4.35;;
50291;SDS011;36190;54.980;73.388;2023-07-20T04:30:53;9.65;;;4.43;;
50291;SDS011;36190;54.980;73.388;2023-07-20T04:33:21;10.95;;;4.22;;
50291;SDS011;36190;54.980;73.388;2023-07-20T04:35:49;10.73;;;4.82;;
50291;SDS011;36190;54.980;73.388;2023-07-20T04:38:17;9.57;;;4.53;;
50291;SDS011;36190;54.980;73.388;2023-07-20T04:40:46;10.93;;;4.05;;
50291;SDS011;36190;54.980;73.388;2023-07-20T04:43:17;13.30;;;4.40;;
50291;SDS011;36190;54.980;73.388;2023-07-20T04:45:45;10.20;;;4.25;;
50291;SDS011;36190;54.980;73.388;2023-07-20T04:48:13;8.70;;;4.28;;
50291;SDS011;36190;54.980;73.388;2023-07-20T04:50:41;11.48;;;4.22;;
50291;SDS011;36190;54.980;73.388;2023-07-20T04:53:10;10.43;;;3.88;;
50291;SDS011;36190;54.980;73.388;2023-07-20T04:55:37;8.60;;;4.28;;
50291;SDS011;36190;54.980;73.388;2023-07-20T04:58:05;9.10;;;3.80;;
50291;SDS011;36190;54.980;73.388;2023-07-20T05:00:34;8.98;;;3.60;;
50291;SDS011;36190;54.980;73.388;2023-07-20T05:03:02;8.13;;;3.78;;
50291;SDS011;36190;54.980;73.388;2023-07-20T05:05:30;7.65;;;3.42;;
50291;SDS011;36190;54.980;73.388;2023-07-20T05:07:58;11.43;;;3.65;;
50291;SDS011;36190;54.980;73.388;2023-07-20T05:10:25;10.23;;;3.42;;
50291;SDS011;36190;54.980;73.388;2023-07-20T05:12:53;7.10;;;3.55;;
50291;SDS011;36190;54.980;73.388;2023-07-20T05:15:20;10.90;;;3.50;;
50291;SDS011;36190;54.980;73.388;2023-07-20T05:17:49;8.25;;;3.17;;
50291;SDS011;36190;54.980;73.388;2023-07-20T05:20:16;7.55;;;3.20;;
50291;SDS011;36190;54.980;73.388;2023-07-20T05:22:44;7.30;;;3.28;;
50291;SDS011;36190;54.980;73.388;2023-07-20T05:25:11;7.45;;;3.20;;
50291;SDS011;36190;54.980;73.388;2023-07-20T05:27:39;7.30;;;3.15;;
50291;SDS011;36190;54.980;73.388;2023-07-20T05:30:07;7.95;;;3.53;;
50291;SDS011;36190;54.980;73.388;2023-07-20T05:32:35;8.82;;;3.30;;
50291;SDS011;36190;54.980;73.388;2023-07-20T05:35:04;9.18;;;3.30;;
50291;SDS011;36190;54.980;73.388;2023-07-20T05:37:32;9.77;;;3.60;;
50291;SDS011;36190;54.980;73.388;2023-07-20T05:40:00;6.03;;;3.20;;
50291;SDS011;36190;54.980;73.388;2023-07-20T05:42:28;7.05;;;3.67;;
50291;SDS011;36190;54.980;73.388;2023-07-20T05:44:55;10.13;;;4.15;;
50291;SDS011;36190;54.980;73.388;2023-07-20T05:47:23;7.35;;;3.58;;
50291;SDS011;36190;54.980;73.388;2023-07-20T05:49:50;8.25;;;3.35;;
50291;SDS011;36190;54.980;73.388;2023-07-20T05:52:19;7.97;;;2.80;;
50291;SDS011;36190;54.980;73.388;2023-07-20T05:54:46;6.05;;;2.90;;
50291;SDS011;36190;54.980;73.388;2023-07-20T05:57:14;6.65;;;3.00;;
50291;SDS011;36190;54.980;73.388;2023-07-20T05:59:41;6.55;;;3.20;;
50291;SDS011;36190;54.980;73.388;2023-07-20T06:02:09;8.20;;;3.55;;
50291;SDS011;36190;54.980;73.388;2023-07-20T06:04:38;7.40;;;3.10;;
50291;SDS011;36190;54.980;73.388;2023-07-20T06:07:06;9.27;;;3.30;;
50291;SDS011;36190;54.980;73.388;2023-07-20T06:09:36;6.85;;;2.95;;
50291;SDS011;36190;54.980;73.388;2023-07-20T06:12:03;6.50;;;3.10;;
50291;SDS011;36190;54.980;73.388;2023-07-20T06:14:31;8.80;;;3.20;;
50291;SDS011;36190;54.980;73.388;2023-07-20T06:16:58;7.97;;;3.30;;
50291;SDS011;36190;54.980;73.388;2023-07-20T06:19:26;8.57;;;3.35;;
50291;SDS011;36190;54.980;73.388;2023-07-20T06:21:53;9.27;;;3.42;;
50291;SDS011;36190;54.980;73.388;2023-07-20T06:24:20;8.02;;;3.10;;
50291;SDS011;36190;54.980;73.388;2023-07-20T06:26:49;7.45;;;3.40;;
50291;SDS011;36190;54.980;73.388;2023-07-20T06:29:16;7.60;;;2.90;;
50291;SDS011;36190;54.980;73.388;2023-07-20T06:31:44;7.75;;;3.47;;
50291;SDS011;36190;54.980;73.388;2023-07-20T06:34:11;8.55;;;2.90;;
50291;SDS011;36190;54.980;73.388;2023-07-20T06:36:39;10.02;;;3.40;;
50291;SDS011;36190;54.980;73.388;2023-07-20T06:39:06;7.88;;;3.00;;
50291;SDS011;36190;54.980;73.388;2023-07-20T06:41:34;7.45;;;3.20;;
50291;SDS011;36190;54.980;73.388;2023-07-20T06:44:03;6.70;;;3.00;;
50291;SDS011;36190;54.980;73.388;2023-07-20T06:46:31;7.35;;;3.10;;
50291;SDS011;36190;54.980;73.388;2023-07-20T06:48:58;7.32;;;3.00;;
50291;SDS011;36190;54.980;73.388;2023-07-20T06:51:25;7.43;;;2.90;;
50291;SDS011;36190;54.980;73.388;2023-07-20T06:53:53;6.88;;;2.78;;
50291;SDS011;36190;54.980;73.388;2023-07-20T06:56:20;8.77;;;3.13;;
50291;SDS011;36190;54.980;73.388;2023-07-20T06:58:49;7.65;;;2.83;;
50291;SDS011;36190;54.980;73.388;2023-07-20T07:01:18;10.60;;;3.17;;
50291;SDS011;36190;54.980;73.388;2023-07-20T07:03:46;6.15;;;2.60;;
50291;SDS011;36190;54.980;73.388;2023-07-20T07:06:13;10.63;;;2.88;;
50291;SDS011;36190;54.980;73.388;2023-07-20T07:08:41;6.80;;;3.10;;
50291;SDS011;36190;54.980;73.388;2023-07-20T07:11:10;7.22;;;3.20;;
50291;SDS011;36190;54.980;73.388;2023-07-20T07:13:37;12.10;;;3.83;;
50291;SDS011;36190;54.980;73.388;2023-07-20T07:16:04;9.27;;;5.45;;
50291;SDS011;36190;54.980;73.388;2023-07-20T07:18:33;9.38;;;4.53;;
50291;SDS011;36190;54.980;73.388;2023-07-20T07:21:01;10.57;;;5.85;;
50291;SDS011;36190;54.980;73.388;2023-07-20T07:23:28;11.82;;;5.63;;
50291;SDS011;36190;54.980;73.388;2023-07-20T07:25:55;7.70;;;3.50;;
50291;SDS011;36190;54.980;73.388;2023-07-20T07:28:23;11.68;;;3.10;;
50291;SDS011;36190;54.980;73.388;2023-07-20T07:30:50;8.02;;;3.47;;
50291;SDS011;36190;54.980;73.388;2023-07-20T07:33:17;8.45;;;3.40;;
50291;SDS011;36190;54.980;73.388;2023-07-20T07:35:46;5.63;;;3.10;;
50291;SDS011;36190;54.980;73.388;2023-07-20T07:38:14;9.15;;;3.20;;
50291;SDS011;36190;54.980;73.388;2023-07-20T07:40:41;6.72;;;2.90;;
50291;SDS011;36190;54.980;73.388;2023-07-20T07:43:08;6.07;;;2.78;;
50291;SDS011;36190;54.980;73.388;2023-07-20T07:45:37;5.07;;;2.58;;
50291;SDS011;36190;54.980;73.388;2023-07-20T07:48:04;6.90;;;3.08;;
50291;SDS011;36190;54.980;73.388;2023-07-20T07:50:32;8.15;;;2.90;;
50291;SDS011;36190;54.980;73.388;2023-07-20T07:53:01;6.72;;;2.90;;
50291;SDS011;36190;54.980;73.388;2023-07-20T07:55:28;5.88;;;2.60;;
50291;SDS011;36190;54.980;73.388;2023-07-20T07:57:56;8.43;;;3.30;;
50291;SDS011;36190;54.980;73.388;2023-07-20T08:00:23;17.55;;;6.55;;
50291;SDS011;36190;54.980;73.388;2023-07-20T08:02:51;13.07;;;8.25;;
50291;SDS011;36190;54.980;73.388;2023-07-20T08:05:18;18.10;;;11.25;;
50291;SDS011;36190;54.980;73.388;2023-07-20T08:07:46;12.73;;;7.07;;
50291;SDS011;36190;54.980;73.388;2023-07-20T08:10:14;17.90;;;9.60;;
50291;SDS011;36190;54.980;73.388;2023-07-20T08:12:42;14.20;;;7.85;;
50291;SDS011;36190;54.980;73.388;2023-07-20T08:15:10;9.48;;;4.72;;
50291;SDS011;36190;54.980;73.388;2023-07-20T08:17:40;6.82;;;3.40;;
50291;SDS011;36190;54.980;73.388;2023-07-20T08:20:08;9.07;;;3.50;;
50291;SDS011;36190;54.980;73.388;2023-07-20T08:22:37;9.13;;;3.03;;
50291;SDS011;36190;54.980;73.388;2023-07-20T08:25:08;7.22;;;3.05;;
50291;SDS011;36190;54.980;73.388;2023-07-20T08:27:37;6.80;;;3.30;;
50291;SDS011;36190;54.980;73.388;2023-07-20T08:30:06;6.85;;;3.20;;
50291;SDS011;36190;54.980;73.388;2023-07-20T08:32:35;5.53;;;2.67;;
50291;SDS011;36190;54.980;73.388;2023-07-20T08:35:02;8.40;;;3.30;;
50291;SDS011;36190;54.980;73.388;2023-07-20T08:37:31;5.75;;;2.72;;
50291;SDS011;36190;54.980;73.388;2023-07-20T08:39:58;5.18;;;2.45;;
50291;SDS011;36190;54.980;73.388;2023-07-20T08:42:26;7.13;;;2.70;;
50291;SDS011;36190;54.980;73.388;2023-07-20T08:44:55;5.65;;;2.85;;
50291;SDS011;36190;54.980;73.388;2023-07-20T08:47:24;5.60;;;2.60;;
50291;SDS011;36190;54.980;73.388;2023-07-20T08:49:52;9.70;;;3.50;;
50291;SDS011;36190;54.980;73.388;2023-07-20T08:52:22;5.40;;;2.90;;
50291;SDS011;36190;54.980;73.388;2023-07-20T08:54:49;10.00;;;3.17;;
50291;SDS011;36190;54.980;73.388;2023-07-20T08:57:19;5.40;;;2.78;;
50291;SDS011;36190;54.980;73.388;2023-07-20T08:59:49;7.90;;;3.00;;
50291;SDS011;36190;54.980;73.388;2023-07-20T09:02:20;5.28;;;2.90;;
50291;SDS011;36190;54.980;73.388;2023-07-20T09:04:50;5.10;;;2.83;;
50291;SDS011;36190;54.980;73.388;2023-07-20T09:07:17;8.02;;;3.10;;
50291;SDS011;36190;54.980;73.388;2023-07-20T09:09:46;10.23;;;3.15;;
50291;SDS011;36190;54.980;73.388;2023-07-20T09:12:14;6.45;;;2.90;;
50291;SDS011;36190;54.980;73.388;2023-07-20T09:14:42;6.63;;;2.85;;
50291;SDS011;36190;54.980;73.388;2023-07-20T09:17:12;6.85;;;2.90;;
50291;SDS011;36190;54.980;73.388;2023-07-20T09:19:46;6.35;;;3.38;;
50291;SDS011;36190;54.980;73.388;2023-07-20T09:22:14;7.32;;;2.92;;
50291;SDS011;36190;54.980;73.388;2023-07-20T09:24:42;7.53;;;3.35;;
50291;SDS011;36190;54.980;73.388;2023-07-20T09:27:10;9.25;;;3.30;;
50291;SDS011;36190;54.980;73.388;2023-07-20T09:29:47;6.40;;;3.08;;
50291;SDS011;36190;54.980;73.388;2023-07-20T09:32:17;6.55;;;2.90;;
50291;SDS011;36190;54.980;73.388;2023-07-20T09:34:48;7.00;;;3.10;;
50291;SDS011;36190;54.980;73.388;2023-07-20T09:37:19;8.68;;;3.30;;
50291;SDS011;36190;54.980;73.388;2023-07-20T09:39:47;8.95;;;3.25;;
50291;SDS011;36190;54.980;73.388;2023-07-20T09:42:17;8.55;;;3.38;;
50291;SDS011;36190;54.980;73.388;2023-07-20T09:44:45;7.15;;;3.08;;
50291;SDS011;36190;54.980;73.388;2023-07-20T09:47:13;6.13;;;3.00;;
50291;SDS011;36190;54.980;73.388;2023-07-20T09:49:50;9.02;;;2.83;;
50291;SDS011;36190;54.980;73.388;2023-07-20T09:52:24;6.65;;;3.10;;
50291;SDS011;36190;54.980;73.388;2023-07-20T09:54:52;7.03;;;2.97;;
50291;SDS011;36190;54.980;73.388;2023-07-20T09:57:21;10.50;;;3.33;;
50291;SDS011;36190;54.980;73.388;2023-07-20T09:59:49;7.55;;;3.05;;
50291;SDS011;36190;54.980;73.388;2023-07-20T10:02:19;6.95;;;3.08;;
50291;SDS011;36190;54.980;73.388;2023-07-20T10:04:50;6.63;;;3.00;;
50291;SDS011;36190;54.980;73.388;2023-07-20T10:07:22;11.07;;;3.55;;
50291;SDS011;36190;54.980;73.388;2023-07-20T10:09:53;7.80;;;3.53;;
50291;SDS011;36190;54.980;73.388;2023-07-20T10:12:23;9.00;;;3.40;;
50291;SDS011;36190;54.980;73.388;2023-07-20T10:14:52;8.32;;;3.45;;
50291;SDS011;36190;54.980;73.388;2023-07-20T10:17:35;5.03;;;3.05;;
50291;SDS011;36190;54.980;73.388;2023-07-20T10:20:09;10.68;;;3.60;;
50291;SDS011;36190;54.980;73.388;2023-07-20T10:22:38;8.05;;;3.28;;
50291;SDS011;36190;54.980;73.388;2023-07-20T10:25:06;7.05;;;3.15;;
50291;SDS011;36190;54.980;73.388;2023-07-20T10:27:34;7.47;;;3.38;;
50291;SDS011;36190;54.980;73.388;2023-07-20T10:30:01;8.02;;;3.30;;
50291;SDS011;36190;54.980;73.388;2023-07-20T10:32:29;6.97;;;3.00;;
50291;SDS011;36190;54.980;73.388;2023-07-20T10:34:57;7.88;;;3.15;;
50291;SDS011;36190;54.980;73.388;2023-07-20T10:40:25;9.57;;;3.10;;
50291;SDS011;36190;54.980;73.388;2023-07-20T10:43:00;8.10;;;3.35;;
50291;SDS011;36190;54.980;73.388;2023-07-20T10:45:33;12.13;;;3.80;;
50291;SDS011;36190;54.980;73.388;2023-07-20T10:48:06;6.70;;;3.40;;
50291;SDS011;36190;54.980;73.388;2023-07-20T10:50:40;7.18;;;3.42;;
50291;SDS011;36190;54.980;73.388;2023-07-20T10:53:13;8.02;;;3.55;;
50291;SDS011;36190;54.980;73.388;2023-07-20T10:55:41;6.10;;;3.15;;
50291;SDS011;36190;54.980;73.388;2023-07-20T10:58:12;7.30;;;3.60;;
50291;SDS011;36190;54.980;73.388;2023-07-20T11:01:00;6.53;;;3.50;;
50291;SDS011;36190;54.980;73.388;2023-07-20T11:03:29;9.43;;;3.45;;
50291;SDS011;36190;54.980;73.388;2023-07-20T11:05:58;13.95;;;3.55;;
50291;SDS011;36190;54.980;73.388;2023-07-20T11:11:21;9.05;;;3.50;;
50291;SDS011;36190;54.980;73.388;2023-07-20T11:13:56;9.32;;;3.30;;
50291;SDS011;36190;54.980;73.388;2023-07-20T11:16:32;11.02;;;3.58;;
50291;SDS011;36190;54.980;73.388;2023-07-20T11:19:15;10.85;;;4.30;;
50291;SDS011;36190;54.980;73.388;2023-07-20T11:21:44;11.93;;;3.40;;
50291;SDS011;36190;54.980;73.388;2023-07-20T11:24:14;9.20;;;3.55;;
50291;SDS011;36190;54.980;73.388;2023-07-20T11:26:41;10.65;;;3.75;;
50291;SDS011;36190;54.980;73.388;2023-07-20T11:29:10;8.48;;;3.53;;
50291;SDS011;36190;54.980;73.388;2023-07-20T11:31:38;7.70;;;3.25;;
50291;SDS011;36190;54.980;73.388;2023-07-20T11:34:06;8.35;;;4.32;;
50291;SDS011;36190;54.980;73.388;2023-07-20T11:36:34;8.90;;;3.72;;
50291;SDS011;36190;54.980;73.388;2023-07-20T11:39:02;7.30;;;3.70;;
50291;SDS011;36190;54.980;73.388;2023-07-20T11:41:32;9.73;;;3.85;;
50291;SDS011;36190;54.980;73.388;2023-07-20T11:44:00;13.10;;;4.03;;
50291;SDS011;36190;54.980;73.388;2023-07-20T11:46:27;8.63;;;3.30;;
50291;SDS011;36190;54.980;73.388;2023-07-20T11:48:56;9.65;;;3.58;;
50291;SDS011;36190;54.980;73.388;2023-07-20T11:51:25;10.40;;;3.97;;
50291;SDS011;36190;54.980;73.388;2023-07-20T11:53:53;12.30;;;3.83;;
50291;SDS011;36190;54.980;73.388;2023-07-20T11:56:22;11.43;;;3.50;;
50291;SDS011;36190;54.980;73.388;2023-07-20T11:58:53;10.98;;;3.60;;
50291;SDS011;36190;54.980;73.388;2023-07-20T12:01:24;8.02;;;3.50;;
50291;SDS011;36190;54.980;73.388;2023-07-20T12:03:54;12.73;;;4.13;;
50291;SDS011;36190;54.980;73.388;2023-07-20T12:06:23;9.32;;;3.72;;
50291;SDS011;36190;54.980;73.388;2023-07-20T12:08:53;11.45;;;4.10;;
50291;SDS011;36190;54.980;73.388;2023-07-20T12:11:35;10.18;;;3.50;;
50291;SDS011;36190;54.980;73.388;2023-07-20T12:14:06;8.07;;;3.50;;
50291;SDS011;36190;54.980;73.388;2023-07-20T12:16:35;12.95;;;3.80;;
50291;SDS011;36190;54.980;73.388;2023-07-20T12:19:04;11.00;;;3.70;;
50291;SDS011;36190;54.980;73.388;2023-07-20T12:21:33;10.45;;;4.00;;
50291;SDS011;36190;54.980;73.388;2023-07-20T12:24:02;11.88;;;4.22;;
50291;SDS011;36190;54.980;73.388;2023-07-20T12:26:31;10.60;;;4.93;;
50291;SDS011;36190;54.980;73.388;2023-07-20T12:28:59;9.80;;;4.65;;
50291;SDS011;36190;54.980;73.388;2023-07-20T12:31:30;8.85;;;3.70;;
50291;SDS011;36190;54.980;73.388;2023-07-20T12:33:57;16.05;;;5.10;;
50291;SDS011;36190;54.980;73.388;2023-07-20T12:36:25;8.75;;;3.78;;
50291;SDS011;36190;54.980;73.388;2023-07-20T12:38:52;6.80;;;3.30;;
50291;SDS011;36190;54.980;73.388;2023-07-20T12:41:20;10.77;;;4.50;;
50291;SDS011;36190;54.980;73.388;2023-07-20T12:43:47;9.90;;;3.78;;
50291;SDS011;36190;54.980;73.388;2023-07-20T12:46:15;10.25;;;3.80;;
50291;SDS011;36190;54.980;73.388;2023-07-20T12:48:44;7.82;;;3.30;;
50291;SDS011;36190;54.980;73.388;2023-07-20T12:51:12;11.02;;;3.63;;
50291;SDS011;36190;54.980;73.388;2023-07-20T12:53:39;7.93;;;3.70;;
50291;SDS011;36190;54.980;73.388;2023-07-20T12:56:07;8.32;;;3.47;;
50291;SDS011;36190;54.980;73.388;2023-07-20T12:58:34;10.07;;;3.53;;
50291;SDS011;36190;54.980;73.388;2023-07-20T13:01:02;6.38;;;3.35;;
50291;SDS011;36190;54.980;73.388;2023-07-20T13:03:30;8.77;;;3.45;;
50291;SDS011;36190;54.980;73.388;2023-07-20T13:05:59;5.32;;;2.97;;
50291;SDS011;36190;54.980;73.388;2023-07-20T13:08:26;6.25;;;2.92;;
50291;SDS011;36190;54.980;73.388;2023-07-20T13:10:53;9.38;;;3.42;;
50291;SDS011;36190;54.980;73.388;2023-07-20T13:13:21;6.47;;;2.97;;
50291;SDS011;36190;54.980;73.388;2023-07-20T13:15:48;7.75;;;3.30;;
50291;SDS011;36190;54.980;73.388;2023-07-20T13:18:16;7.55;;;3.72;;
50291;SDS011;36190;54.980;73.388;2023-07-20T13:20:43;8.30;;;3.60;;
50291;SDS011;36190;54.980;73.388;2023-07-20T13:23:12;5.78;;;3.20;;
50291;SDS011;36190;54.980;73.388;2023-07-20T13:25:40;8.15;;;3.40;;
50291;SDS011;36190;54.980;73.388;2023-07-20T13:28:07;13.48;;;4.93;;
50291;SDS011;36190;54.980;73.388;2023-07-20T13:30:34;11.38;;;4.18;;
50291;SDS011;36190;54.980;73.388;2023-07-20T13:33:02;7.40;;;3.40;;
50291;SDS011;36190;54.980;73.388;2023-07-20T13:35:29;11.65;;;5.10;;
50291;SDS011;36190;54.980;73.388;2023-07-20T13:37:57;11.00;;;4.72;;
50291;SDS011;36190;54.980;73.388;2023-07-20T13:40:25;11.02;;;5.18;;
50291;SDS011;36190;54.980;73.388;2023-07-20T13:42:53;9.48;;;4.32;;
50291;SDS011;36190;54.980;73.388;2023-07-20T13:45:20;8.00;;;3.95;;
50291;SDS011;36190;54.980;73.388;2023-07-20T13:47:48;10.02;;;4.13;;
50291;SDS011;36190;54.980;73.388;2023-07-20T13:50:15;14.75;;;5.03;;
50291;SDS011;36190;54.980;73.388;2023-07-20T13:52:42;9.30;;;4.10;;
50291;SDS011;36190;54.980;73.388;2023-07-20T13:55:10;9.88;;;4.20;;
50291;SDS011;36190;54.980;73.388;2023-07-20T13:57:39;8.15;;;4.03;;
50291;SDS011;36190;54.980;73.388;2023-07-20T14:00:06;9.02;;;3.65;;
50291;SDS011;36190;54.980;73.388;2023-07-20T14:02:36;9.15;;;4.25;;
50291;SDS011;36190;54.980;73.388;2023-07-20T14:05:03;9.45;;;4.57;;
50291;SDS011;36190;54.980;73.388;2023-07-20T14:07:31;8.30;;;4.40;;
50291;SDS011;36190;54.980;73.388;2023-07-20T14:09:58;12.43;;;4.25;;
50291;SDS011;36190;54.980;73.388;2023-07-20T14:12:26;10.25;;;3.67;;
50291;SDS011;36190;54.980;73.388;2023-07-20T14:14:54;7.38;;;3.70;;
50291;SDS011;36190;54.980;73.388;2023-07-20T14:17:22;10.15;;;4.28;;
50291;SDS011;36190;54.980;73.388;2023-07-20T14:19:50;10.18;;;4.20;;
50291;SDS011;36190;54.980;73.388;2023-07-20T14:22:18;9.10;;;3.85;;
50291;SDS011;36190;54.980;73.388;2023-07-20T14:24:45;9.35;;;4.38;;
50291;SDS011;36190;54.980;73.388;2023-07-20T14:27:12;13.73;;;4.70;;
50291;SDS011;36190;54.980;73.388;2023-07-20T14:29:40;8.07;;;4.03;;
50291;SDS011;36190;54.980;73.388;2023-07-20T14:32:09;9.93;;;4.28;;
50291;SDS011;36190;54.980;73.388;2023-07-20T14:34:36;10.10;;;4.43;;
50291;SDS011;36190;54.980;73.388;2023-07-20T14:37:04;9.35;;;4.07;;
50291;SDS011;36190;54.980;73.388;2023-07-20T14:39:32;9.65;;;4.25;;